sensor_id;sensor_type;location;lat;lon;timestamp;pressure;altitude;pressure_sealevel;temperature;humidity
47985;BME280;33753;52.912;-7.342;2023-03-07T00:00:07;99174.75;;;0.69;100.00
47985;BME280;33753;52.912;-7.342;2023-03-07T00:02:38;99172.06;;;0.69;100.00
47985;BME280;33753;52.912;-7.342;2023-03-07T00:05:07;99178.38;;;0.68;100.00
47985;BME280;33753;52.912;-7.342;2023-03-07T00:07:37;99179.19;;;0.68;100.00
47985;BME280;33753;52.912;-7.342;2023-03-07T00:10:06;99176.97;;;0.64;100.00
47985;BME280;33753;52.912;-7.342;2023-03-07T00:12:34;99172.50;;;0.64;100.00
47985;BME280;33753;52.912;-7.342;2023-03-07T00:15:03;99175.56;;;0.60;100.00
47985;BME280;33753;52.912;-7.342;2023-03-07T00:17:31;99172.22;;;0.58;100.00
47985;BME280;33753;52.912;-7.342;2023-03-07T00:19:59;99166.31;;;0.54;100.00
47985;BME280;33753;52.912;-7.342;2023-03-07T00:22:27;99167.47;;;0.51;100.00
47985;BME280;33753;52.912;-7.342;2023-03-07T00:24:58;99169.69;;;0.46;100.00
47985;BME280;33753;52.912;-7.342;2023-03-07T00:27:26;99170.78;;;0.44;100.00
47985;BME280;33753;52.912;-7.342;2023-03-07T00:29:56;99170.25;;;0.40;100.00
47985;BME280;33753;52.912;-7.342;2023-03-07T00:32:24;99168.56;;;0.39;100.00
47985;BME280;33753;52.912;-7.342;2023-03-07T00:34:53;99173.16;;;0.27;100.00
47985;BME280;33753;52.912;-7.342;2023-03-07T00:37:21;99176.06;;;0.24;100.00
47985;BME280;33753;52.912;-7.342;2023-03-07T00:39:49;99169.63;;;0.17;100.00
47985;BME280;33753;52.912;-7.342;2023-03-07T00:42:19;99171.44;;;0.16;100.00
47985;BME280;33753;52.912;-7.342;2023-03-07T00:44:47;99169.47;;;0.19;100.00
47985;BME280;33753;52.912;-7.342;2023-03-07T00:47:16;99161.09;;;0.13;100.00
47985;BME280;33753;52.912;-7.342;2023-03-07T00:49:45;99153.41;;;0.10;100.00
47985;BME280;33753;52.912;-7.342;2023-03-07T00:52:13;99157.03;;;0.09;100.00
47985;BME280;33753;52.912;-7.342;2023-03-07T00:54:41;99160.38;;;0.11;100.00
47985;BME280;33753;52.912;-7.342;2023-03-07T00:57:09;99157.72;;;0.11;100.00
47985;BME280;33753;52.912;-7.342;2023-03-07T00:59:39;99155.91;;;0.12;100.00
47985;BME280;33753;52.912;-7.342;2023-03-07T01:02:08;99151.16;;;0.15;100.00
47985;BME280;33753;52.912;-7.342;2023-03-07T01:04:36;99154.53;;;0.17;100.00
47985;BME280;33753;52.912;-7.342;2023-03-07T01:07:04;99157.06;;;0.19;100.00
47985;BME280;33753;52.912;-7.342;2023-03-07T01:09:32;99154.53;;;0.17;100.00
47985;BME280;33753;52.912;-7.342;2023-03-07T01:12:00;99147.97;;;0.22;100.00
47985;BME280;33753;52.912;-7.342;2023-03-07T01:14:32;99143.63;;;0.21;100.00
47985;BME280;33753;52.912;-7.342;2023-03-07T01:17:02;99134.53;;;0.23;100.00
47985;BME280;33753;52.912;-7.342;2023-03-07T01:19:30;99133.81;;;0.31;100.00
47985;BME280;33753;52.912;-7.342;2023-03-07T01:21:58;99141.38;;;0.36;100.00
47985;BME280;33753;52.912;-7.342;2023-03-07T01:24:28;99142.09;;;0.38;100.00
47985;BME280;33753;52.912;-7.342;2023-03-07T01:26:57;99134.66;;;0.41;100.00
47985;BME280;33753;52.912;-7.342;2023-03-07T01:29:25;99124.88;;;0.42;100.00
47985;BME280;33753;52.912;-7.342;2023-03-07T01:31:54;99128.22;;;0.44;100.00
47985;BME280;33753;52.912;-7.342;2023-03-07T01:34:24;99120.97;;;0.46;100.00
47985;BME280;33753;52.912;-7.342;2023-03-07T01:36:52;99118.03;;;0.49;100.00
47985;BME280;33753;52.912;-7.342;2023-03-07T01:39:20;99124.75;;;0.53;100.00
47985;BME280;33753;52.912;-7.342;2023-03-07T01:42:00;99122.63;;;0.57;100.00
47985;BME280;33753;52.912;-7.342;2023-03-07T01:44:28;99123.88;;;0.62;100.00
47985;BME280;33753;52.912;-7.342;2023-03-07T01:46:57;99118.44;;;0.64;100.00
47985;BME280;33753;52.912;-7.342;2023-03-07T01:49:37;99123.47;;;0.67;100.00
47985;BME280;33753;52.912;-7.342;2023-03-07T01:52:06;99120.53;;;0.70;100.00
47985;BME280;33753;52.912;-7.342;2023-03-07T01:54:39;99115.91;;;0.72;100.00
47985;BME280;33753;52.912;-7.342;2023-03-07T01:57:17;99128.91;;;0.75;100.00
47985;BME280;33753;52.912;-7.342;2023-03-07T01:59:46;99122.63;;;0.76;100.00
47985;BME280;33753;52.912;-7.342;2023-03-07T02:02:17;99112.28;;;0.73;100.00
47985;BME280;33753;52.912;-7.342;2023-03-07T02:04:50;99116.34;;;0.77;100.00
47985;BME280;33753;52.912;-7.342;2023-03-07T02:07:20;99115.63;;;0.75;100.00
47985;BME280;33753;52.912;-7.342;2023-03-07T02:09:51;99112.28;;;0.73;100.00
47985;BME280;33753;52.912;-7.342;2023-03-07T02:12:20;99110.28;;;0.75;100.00
47985;BME280;33753;52.912;-7.342;2023-03-07T02:14:49;99112.81;;;0.77;100.00
47985;BME280;33753;52.912;-7.342;2023-03-07T02:17:18;99112.94;;;0.75;100.00
47985;BME280;33753;52.912;-7.342;2023-03-07T02:19:52;99107.50;;;0.77;100.00
47985;BME280;33753;52.912;-7.342;2023-03-07T02:22:22;99108.34;;;0.77;100.00
47985;BME280;33753;52.912;-7.342;2023-03-07T02:24:52;99110.00;;;0.78;100.00
47985;BME280;33753;52.912;-7.342;2023-03-07T02:27:24;99112.66;;;0.78;100.00
47985;BME280;33753;52.912;-7.342;2023-03-07T02:29:53;99110.00;;;0.78;100.00
47985;BME280;33753;52.912;-7.342;2023-03-07T02:32:21;99094.03;;;0.78;100.00
47985;BME280;33753;52.912;-7.342;2023-03-07T02:34:49;99098.69;;;0.76;100.00
47985;BME280;33753;52.912;-7.342;2023-03-07T02:37:21;99102.31;;;0.75;100.00
47985;BME280;33753;52.912;-7.342;2023-03-07T02:39:53;99099.66;;;0.75;100.00
47985;BME280;33753;52.912;-7.342;2023-03-07T02:42:25;99095.44;;;0.73;100.00
47985;BME280;33753;52.912;-7.342;2023-03-07T02:45:08;99094.63;;;0.72;100.00
47985;BME280;33753;52.912;-7.342;2023-03-07T02:47:39;99094.63;;;0.72;100.00
47985;BME280;33753;52.912;-7.342;2023-03-07T02:50:10;99093.06;;;0.69;100.00
47985;BME280;33753;52.912;-7.342;2023-03-07T02:52:40;99090.41;;;0.69;100.00
47985;BME280;33753;52.912;-7.342;2023-03-07T02:55:09;99085.94;;;0.70;100.00
47985;BME280;33753;52.912;-7.342;2023-03-07T02:57:46;99088.59;;;0.70;100.00
47985;BME280;33753;52.912;-7.342;2023-03-07T03:00:15;99087.59;;;0.71;100.00
47985;BME280;33753;52.912;-7.342;2023-03-07T03:02:43;99080.75;;;0.68;100.00
47985;BME280;33753;52.912;-7.342;2023-03-07T03:05:11;99088.72;;;0.68;100.00
47985;BME280;33753;52.912;-7.342;2023-03-07T03:07:40;99078.94;;;0.69;100.00
47985;BME280;33753;52.912;-7.342;2023-03-07T03:10:08;99075.56;;;0.67;100.00
47985;BME280;33753;52.912;-7.342;2023-03-07T03:12:37;99071.66;;;0.61;100.00
47985;BME280;33753;52.912;-7.342;2023-03-07T03:15:08;99070.81;;;0.61;100.00
47985;BME280;33753;52.912;-7.342;2023-03-07T03:17:37;99070.81;;;0.61;100.00
47985;BME280;33753;52.912;-7.342;2023-03-07T03:20:05;99074.44;;;0.60;100.00
47985;BME280;33753;52.912;-7.342;2023-03-07T03:22:37;99075.56;;;0.57;100.00
47985;BME280;33753;52.912;-7.342;2023-03-07T03:25:06;99073.06;;;0.56;100.00
47985;BME280;33753;52.912;-7.342;2023-03-07T03:27:37;99075.03;;;0.54;100.00
47985;BME280;33753;52.912;-7.342;2023-03-07T03:30:09;99075.03;;;0.54;100.00
47985;BME280;33753;52.912;-7.342;2023-03-07T03:32:40;99081.03;;;0.56;100.00
47985;BME280;33753;52.912;-7.342;2023-03-07T03:35:12;99080.34;;;0.54;100.00
47985;BME280;33753;52.912;-7.342;2023-03-07T03:37:41;99077.00;;;0.51;100.00
47985;BME280;33753;52.912;-7.342;2023-03-07T03:40:10;99080.63;;;0.50;100.00
47985;BME280;33753;52.912;-7.342;2023-03-07T03:42:45;99078.13;;;0.49;100.00
47985;BME280;33753;52.912;-7.342;2023-03-07T03:45:17;99074.59;;;0.48;100.00
47985;BME280;33753;52.912;-7.342;2023-03-07T03:47:46;99069.41;;;0.47;100.00
47985;BME280;33753;52.912;-7.342;2023-03-07T03:50:16;99075.59;;;0.47;100.00
47985;BME280;33753;52.912;-7.342;2023-03-07T03:52:44;99064.97;;;0.47;100.00
47985;BME280;33753;52.912;-7.342;2023-03-07T03:55:12;99066.91;;;0.45;100.00
47985;BME280;33753;52.912;-7.342;2023-03-07T03:57:41;99068.88;;;0.43;100.00
47985;BME280;33753;52.912;-7.342;2023-03-07T04:00:09;99074.19;;;0.43;100.00
47985;BME280;33753;52.912;-7.342;2023-03-07T04:02:42;99070.81;;;0.41;100.00
47985;BME280;33753;52.912;-7.342;2023-03-07T04:05:14;99055.16;;;0.38;100.00
47985;BME280;33753;52.912;-7.342;2023-03-07T04:07:43;99060.47;;;0.38;100.00
47985;BME280;33753;52.912;-7.342;2023-03-07T04:10:11;99060.47;;;0.38;100.00
47985;BME280;33753;52.912;-7.342;2023-03-07T04:12:39;99058.78;;;0.37;100.00
47985;BME280;33753;52.912;-7.342;2023-03-07T04:15:08;99058.78;;;0.37;100.00
47985;BME280;33753;52.912;-7.342;2023-03-07T04:17:37;99063.56;;;0.33;100.00
47985;BME280;33753;52.912;-7.342;2023-03-07T04:20:08;99056.84;;;0.29;100.00
47985;BME280;33753;52.912;-7.342;2023-03-07T04:22:45;99064.28;;;0.26;100.00
47985;BME280;33753;52.912;-7.342;2023-03-07T04:25:13;99067.19;;;0.23;100.00
47985;BME280;33753;52.912;-7.342;2023-03-07T04:27:41;99063.84;;;0.21;100.00
47985;BME280;33753;52.912;-7.342;2023-03-07T04:30:10;99059.78;;;0.16;100.00
47985;BME280;33753;52.912;-7.342;2023-03-07T04:32:39;99057.41;;;0.13;100.00
47985;BME280;33753;52.912;-7.342;2023-03-07T04:35:09;99051.50;;;0.10;100.00
47985;BME280;33753;52.912;-7.342;2023-03-07T04:37:37;99050.97;;;0.06;100.00
47985;BME280;33753;52.912;-7.342;2023-03-07T04:40:06;99050.38;;;0.03;100.00
47985;BME280;33753;52.912;-7.342;2023-03-07T04:42:35;99058.09;;;-0.04;100.00
47985;BME280;33753;52.912;-7.342;2023-03-07T04:45:03;99042.41;;;-0.07;100.00
47985;BME280;33753;52.912;-7.342;2023-03-07T04:47:32;99047.16;;;-0.11;100.00
47985;BME280;33753;52.912;-7.342;2023-03-07T04:50:01;99032.75;;;-0.18;100.00
47985;BME280;33753;52.912;-7.342;2023-03-07T04:52:32;99034.84;;;-0.22;100.00
47985;BME280;33753;52.912;-7.342;2023-03-07T04:55:00;99028.84;;;-0.24;100.00
47985;BME280;33753;52.912;-7.342;2023-03-07T04:57:29;99027.16;;;-0.25;100.00
47985;BME280;33753;52.912;-7.342;2023-03-07T04:59:57;99030.78;;;-0.26;100.00
47985;BME280;33753;52.912;-7.342;2023-03-07T05:02:26;99033.28;;;-0.34;100.00
47985;BME280;33753;52.912;-7.342;2023-03-07T05:04:56;99025.31;;;-0.34;100.00
47985;BME280;33753;52.912;-7.342;2023-03-07T05:07:24;99031.31;;;-0.42;100.00
47985;BME280;33753;52.912;-7.342;2023-03-07T05:09:53;99027.13;;;-0.44;100.00
47985;BME280;33753;52.912;-7.342;2023-03-07T05:12:22;99030.47;;;-0.42;100.00
47985;BME280;33753;52.912;-7.342;2023-03-07T05:14:51;99027.38;;;-0.47;100.00
47985;BME280;33753;52.912;-7.342;2023-03-07T05:17:20;99031.88;;;-0.48;100.00
47985;BME280;33753;52.912;-7.342;2023-03-07T05:19:48;99033.25;;;-0.54;100.00
47985;BME280;33753;52.912;-7.342;2023-03-07T05:22:16;99026.53;;;-0.58;100.00
47985;BME280;33753;52.912;-7.342;2023-03-07T05:24:45;99025.56;;;-0.57;100.00
47985;BME280;33753;52.912;-7.342;2023-03-07T05:27:14;99026.66;;;-0.59;100.00
47985;BME280;33753;52.912;-7.342;2023-03-07T05:29:43;99025.97;;;-0.61;100.00
47985;BME280;33753;52.912;-7.342;2023-03-07T05:32:11;99027.06;;;-0.64;100.00
47985;BME280;33753;52.912;-7.342;2023-03-07T05:34:39;99023.97;;;-0.69;100.00
47985;BME280;33753;52.912;-7.342;2023-03-07T05:37:07;99026.91;;;-0.72;100.00
47985;BME280;33753;52.912;-7.342;2023-03-07T05:39:36;99025.94;;;-0.71;100.00
47985;BME280;33753;52.912;-7.342;2023-03-07T05:42:05;99028.13;;;-0.76;100.00
47985;BME280;33753;52.912;-7.342;2023-03-07T05:44:36;99021.28;;;-0.79;100.00
47985;BME280;33753;52.912;-7.342;2023-03-07T05:47:05;99024.78;;;-0.78;100.00
47985;BME280;33753;52.912;-7.342;2023-03-07T05:49:34;99024.94;;;-0.80;100.00
47985;BME280;33753;52.912;-7.342;2023-03-07T05:52:03;99030.38;;;-0.81;100.00
47985;BME280;33753;52.912;-7.342;2023-03-07T05:54:31;99021.69;;;-0.83;100.00
47985;BME280;33753;52.912;-7.342;2023-03-07T05:56:59;99014.00;;;-0.87;100.00
47985;BME280;33753;52.912;-7.342;2023-03-07T05:59:28;99012.31;;;-0.88;100.00
47985;BME280;33753;52.912;-7.342;2023-03-07T06:01:57;99009.66;;;-0.88;100.00
47985;BME280;33753;52.912;-7.342;2023-03-07T06:04:26;99014.53;;;-0.93;100.00
47985;BME280;33753;52.912;-7.342;2023-03-07T06:06:54;99013.53;;;-0.92;100.00
47985;BME280;33753;52.912;-7.342;2023-03-07T06:09:22;99009.66;;;-0.88;100.00
47985;BME280;33753;52.912;-7.342;2023-03-07T06:11:53;99010.19;;;-0.94;100.00
47985;BME280;33753;52.912;-7.342;2023-03-07T06:14:21;99014.41;;;-0.91;100.00
47985;BME280;33753;52.912;-7.342;2023-03-07T06:16:50;99011.16;;;-0.95;100.00
47985;BME280;33753;52.912;-7.342;2023-03-07T06:19:20;99012.41;;;-0.99;100.00
47985;BME280;33753;52.912;-7.342;2023-03-07T06:21:49;99014.22;;;-0.99;100.00
47985;BME280;33753;52.912;-7.342;2023-03-07T06:24:18;99023.88;;;-0.98;100.00
47985;BME280;33753;52.912;-7.342;2023-03-07T06:26:46;99034.38;;;-0.97;100.00
47985;BME280;33753;52.912;-7.342;2023-03-07T06:29:18;99030.84;;;-0.97;100.00
47985;BME280;33753;52.912;-7.342;2023-03-07T06:31:46;99031.56;;;-0.95;100.00
47985;BME280;33753;52.912;-7.342;2023-03-07T06:34:14;99037.00;;;-0.97;100.00
47985;BME280;33753;52.912;-7.342;2023-03-07T06:36:45;99037.00;;;-0.97;100.00
47985;BME280;33753;52.912;-7.342;2023-03-07T06:39:15;99025.53;;;-0.97;100.00
47985;BME280;33753;52.912;-7.342;2023-03-07T06:41:49;99022.19;;;-0.99;100.00
47985;BME280;33753;52.912;-7.342;2023-03-07T06:44:17;99025.41;;;-0.96;100.00
47985;BME280;33753;52.912;-7.342;2023-03-07T06:46:46;99035.06;;;-0.95;100.00
47985;BME280;33753;52.912;-7.342;2023-03-07T06:49:17;99028.06;;;-0.96;100.00
47985;BME280;33753;52.912;-7.342;2023-03-07T06:51:48;99031.72;;;-0.97;100.00
47985;BME280;33753;52.912;-7.342;2023-03-07T06:54:17;99040.63;;;-0.98;100.00
47985;BME280;33753;52.912;-7.342;2023-03-07T06:56:45;99043.97;;;-0.96;100.00
47985;BME280;33753;52.912;-7.342;2023-03-07T06:59:17;99045.66;;;-0.95;100.00
47985;BME280;33753;52.912;-7.342;2023-03-07T07:01:46;99035.06;;;-0.95;100.00
47985;BME280;33753;52.912;-7.342;2023-03-07T07:04:17;99037.72;;;-0.95;100.00
47985;BME280;33753;52.912;-7.342;2023-03-07T07:06:46;99042.41;;;-1.08;100.00
47985;BME280;33753;52.912;-7.342;2023-03-07T07:09:16;99044.66;;;-1.03;100.00
47985;BME280;33753;52.912;-7.342;2023-03-07T07:11:45;99037.53;;;-1.03;100.00
47985;BME280;33753;52.912;-7.342;2023-03-07T07:14:13;99033.91;;;-1.02;100.00
47985;BME280;33753;52.912;-7.342;2023-03-07T07:16:41;99039.22;;;-1.02;100.00
47985;BME280;33753;52.912;-7.342;2023-03-07T07:19:09;99044.53;;;-1.02;100.00
47985;BME280;33753;52.912;-7.342;2023-03-07T07:21:37;99044.25;;;-0.99;100.00
47985;BME280;33753;52.912;-7.342;2023-03-07T07:24:06;99028.19;;;-0.97;100.00
47985;BME280;33753;52.912;-7.342;2023-03-07T07:26:36;99036.03;;;-0.96;100.00
47985;BME280;33753;52.912;-7.342;2023-03-07T07:29:04;99045.41;;;-0.92;100.00
47985;BME280;33753;52.912;-7.342;2023-03-07T07:31:32;99048.78;;;-0.90;100.00
47985;BME280;33753;52.912;-7.342;2023-03-07T07:34:01;99053.13;;;-0.89;100.00
47985;BME280;33753;52.912;-7.342;2023-03-07T07:36:31;99055.50;;;-0.85;100.00
47985;BME280;33753;52.912;-7.342;2023-03-07T07:39:01;99065.81;;;-0.92;100.00
47985;BME280;33753;52.912;-7.342;2023-03-07T07:41:30;99052.41;;;-0.91;100.00
47985;BME280;33753;52.912;-7.342;2023-03-07T07:44:00;99056.59;;;-0.88;100.00
47985;BME280;33753;52.912;-7.342;2023-03-07T07:46:36;99054.78;;;-0.88;100.00
47985;BME280;33753;52.912;-7.342;2023-03-07T07:49:06;99050.47;;;-0.89;100.00
47985;BME280;33753;52.912;-7.342;2023-03-07T07:51:34;99053.13;;;-0.89;100.00
47985;BME280;33753;52.912;-7.342;2023-03-07T07:54:03;99061.78;;;-0.87;100.00
47985;BME280;33753;52.912;-7.342;2023-03-07T07:56:31;99062.75;;;-0.88;100.00
47985;BME280;33753;52.912;-7.342;2023-03-07T07:59:01;99058.84;;;-0.83;100.00
47985;BME280;33753;52.912;-7.342;2023-03-07T08:01:29;99065.41;;;-0.88;100.00
47985;BME280;33753;52.912;-7.342;2023-03-07T08:03:57;99066.81;;;-0.83;100.00
47985;BME280;33753;52.912;-7.342;2023-03-07T08:06:26;99072.84;;;-0.81;100.00
47985;BME280;33753;52.912;-7.342;2023-03-07T08:08:54;99066.28;;;-0.77;100.00
47985;BME280;33753;52.912;-7.342;2023-03-07T08:11:23;99074.69;;;-0.72;100.00
47985;BME280;33753;52.912;-7.342;2023-03-07T08:13:51;99080.59;;;-0.68;100.00
47985;BME280;33753;52.912;-7.342;2023-03-07T08:16:21;99077.53;;;-0.64;100.00
47985;BME280;33753;52.912;-7.342;2023-03-07T08:18:50;99072.06;;;-0.62;100.00
47985;BME280;33753;52.912;-7.342;2023-03-07T08:21:19;99073.34;;;-0.57;100.00
47985;BME280;33753;52.912;-7.342;2023-03-07T08:23:47;99072.81;;;-0.50;100.00
47985;BME280;33753;52.912;-7.342;2023-03-07T08:26:15;99069.75;;;-0.46;100.00
47985;BME280;33753;52.912;-7.342;2023-03-07T08:28:44;99071.56;;;-0.46;100.00
47985;BME280;33753;52.912;-7.342;2023-03-07T08:31:14;99067.81;;;-0.44;100.00
47985;BME280;33753;52.912;-7.342;2023-03-07T08:33:44;99073.66;;;-0.40;100.00
47985;BME280;33753;52.912;-7.342;2023-03-07T08:36:13;99075.22;;;-0.38;100.00
47985;BME280;33753;52.912;-7.342;2023-03-07T08:38:41;99070.03;;;-0.39;100.00
47985;BME280;33753;52.912;-7.342;2023-03-07T08:41:09;99061.53;;;-0.33;100.00
47985;BME280;33753;52.912;-7.342;2023-03-07T08:43:37;99067.00;;;-0.25;100.00
47985;BME280;33753;52.912;-7.342;2023-03-07T08:46:06;99066.88;;;-0.13;100.00
47985;BME280;33753;52.912;-7.342;2023-03-07T08:48:34;99071.38;;;-0.04;100.00
47985;BME280;33753;52.912;-7.342;2023-03-07T08:51:04;99060.75;;;-0.04;100.00
47985;BME280;33753;52.912;-7.342;2023-03-07T08:53:33;99063.00;;;0.10;100.00
47985;BME280;33753;52.912;-7.342;2023-03-07T08:56:04;99064.66;;;0.11;100.00
47985;BME280;33753;52.912;-7.342;2023-03-07T08:58:33;99060.75;;;0.25;100.00
47985;BME280;33753;52.912;-7.342;2023-03-07T09:01:01;99055.16;;;0.38;100.00
47985;BME280;33753;52.912;-7.342;2023-03-07T09:03:30;99068.16;;;0.61;100.00
47985;BME280;33753;52.912;-7.342;2023-03-07T09:05:59;99059.72;;;0.75;100.00
47985;BME280;33753;52.912;-7.342;2023-03-07T09:08:29;99062.38;;;0.85;100.00
47985;BME280;33753;52.912;-7.342;2023-03-07T09:10:57;99063.31;;;0.94;100.00
47985;BME280;33753;52.912;-7.342;2023-03-07T09:13:26;99069.34;;;0.96;100.00
47985;BME280;33753;52.912;-7.342;2023-03-07T09:15:54;99063.75;;;0.99;100.00
47985;BME280;33753;52.912;-7.342;2023-03-07T09:18:22;99055.75;;;0.99;100.00
47985;BME280;33753;52.912;-7.342;2023-03-07T09:20:50;99052.09;;;1.00;100.00
47985;BME280;33753;52.912;-7.342;2023-03-07T09:23:18;99051.69;;;1.05;100.00
47985;BME280;33753;52.912;-7.342;2023-03-07T09:25:48;99051.69;;;0.95;100.00
47985;BME280;33753;52.912;-7.342;2023-03-07T09:28:16;99049.03;;;0.95;100.00
47985;BME280;33753;52.912;-7.342;2023-03-07T09:30:44;99036.28;;;0.89;100.00
47985;BME280;33753;52.912;-7.342;2023-03-07T09:33:13;99040.50;;;0.81;100.00
47985;BME280;33753;52.912;-7.342;2023-03-07T09:35:41;99048.09;;;0.76;100.00
47985;BME280;33753;52.912;-7.342;2023-03-07T09:38:09;99048.09;;;0.76;100.00
47985;BME280;33753;52.912;-7.342;2023-03-07T09:40:38;99050.63;;;0.68;100.00
47985;BME280;33753;52.912;-7.342;2023-03-07T09:43:09;99053.13;;;0.79;100.00
47985;BME280;33753;52.912;-7.342;2023-03-07T09:45:52;99052.97;;;0.91;100.00
47985;BME280;33753;52.912;-7.342;2023-03-07T09:51:17;99063.63;;;0.91;100.00
47985;BME280;33753;52.912;-7.342;2023-03-07T09:53:49;99070.78;;;0.80;100.00
47985;BME280;33753;52.912;-7.342;2023-03-07T09:56:21;99068.78;;;0.92;100.00
47985;BME280;33753;52.912;-7.342;2023-03-07T09:58:55;99067.09;;;1.01;100.00
47985;BME280;33753;52.912;-7.342;2023-03-07T10:01:30;99078.16;;;1.06;100.00
47985;BME280;33753;52.912;-7.342;2023-03-07T10:04:00;99059.81;;;1.03;100.00
47985;BME280;33753;52.912;-7.342;2023-03-07T10:06:32;99058.63;;;1.15;100.00
47985;BME280;33753;52.912;-7.342;2023-03-07T10:09:01;99058.00;;;1.31;100.00
47985;BME280;33753;52.912;-7.342;2023-03-07T10:11:39;99071.75;;;1.27;100.00
47985;BME280;33753;52.912;-7.342;2023-03-07T10:14:15;99063.44;;;1.40;100.00
47985;BME280;33753;52.912;-7.342;2023-03-07T10:16:48;99053.16;;;1.54;100.00
47985;BME280;33753;52.912;-7.342;2023-03-07T10:19:19;99053.22;;;1.63;100.00
47985;BME280;33753;52.912;-7.342;2023-03-07T10:21:51;99042.13;;;1.67;100.00
47985;BME280;33753;52.912;-7.342;2023-03-07T10:24:35;99047.00;;;1.72;100.00
47985;BME280;33753;52.912;-7.342;2023-03-07T10:27:06;99044.97;;;2.02;100.00
47985;BME280;33753;52.912;-7.342;2023-03-07T10:29:39;99030.81;;;2.19;100.00
47985;BME280;33753;52.912;-7.342;2023-03-07T10:32:19;99027.50;;;2.44;100.00
47985;BME280;33753;52.912;-7.342;2023-03-07T10:34:51;99030.88;;;2.72;100.00
47985;BME280;33753;52.912;-7.342;2023-03-07T10:37:25;99033.72;;;3.31;100.00
47985;BME280;33753;52.912;-7.342;2023-03-07T10:39:56;99043.09;;;3.78;100.00
47985;BME280;33753;52.912;-7.342;2023-03-07T10:42:32;99040.13;;;4.06;100.00
47985;BME280;33753;52.912;-7.342;2023-03-07T10:45:04;99026.78;;;4.22;100.00
47985;BME280;33753;52.912;-7.342;2023-03-07T10:47:32;99022.41;;;4.54;100.00
47985;BME280;33753;52.912;-7.342;2023-03-07T10:50:03;99013.03;;;4.83;100.00
47985;BME280;33753;52.912;-7.342;2023-03-07T10:52:37;99010.81;;;5.03;100.00
47985;BME280;33753;52.912;-7.342;2023-03-07T10:58:11;99009.13;;;5.02;100.00
47985;BME280;33753;52.912;-7.342;2023-03-07T11:00:41;99008.81;;;5.45;100.00
47985;BME280;33753;52.912;-7.342;2023-03-07T11:03:23;99011.91;;;5.96;100.00
47985;BME280;33753;52.912;-7.342;2023-03-07T11:05:52;99012.56;;;6.83;100.00
47985;BME280;33753;52.912;-7.342;2023-03-07T11:08:25;99020.09;;;7.47;100.00
47985;BME280;33753;52.912;-7.342;2023-03-07T11:10:53;99012.03;;;7.32;100.00
47985;BME280;33753;52.912;-7.342;2023-03-07T11:13:22;99012.91;;;7.69;100.00
47985;BME280;33753;52.912;-7.342;2023-03-07T11:16:06;99013.03;;;7.98;100.00
47985;BME280;33753;52.912;-7.342;2023-03-07T11:18:39;99006.84;;;8.40;100.00
47985;BME280;33753;52.912;-7.342;2023-03-07T11:21:23;99012.81;;;8.86;100.00
47985;BME280;33753;52.912;-7.342;2023-03-07T11:23:56;99004.38;;;8.95;100.00
47985;BME280;33753;52.912;-7.342;2023-03-07T11:26:25;98998.88;;;9.10;100.00
47985;BME280;33753;52.912;-7.342;2023-03-07T11:29:02;99005.97;;;9.60;100.00
47985;BME280;33753;52.912;-7.342;2023-03-07T11:31:33;99004.22;;;9.87;100.00
47985;BME280;33753;52.912;-7.342;2023-03-07T11:34:03;98997.78;;;9.40;100.00
47985;BME280;33753;52.912;-7.342;2023-03-07T11:36:35;99003.13;;;9.26;100.00
47985;BME280;33753;52.912;-7.342;2023-03-07T11:39:05;98990.16;;;8.80;100.00
47985;BME280;33753;52.912;-7.342;2023-03-07T11:41:34;99000.38;;;8.85;100.00
47985;BME280;33753;52.912;-7.342;2023-03-07T11:44:10;99004.72;;;8.86;100.00
47985;BME280;33753;52.912;-7.342;2023-03-07T11:46:48;98997.34;;;8.44;100.00
47985;BME280;33753;52.912;-7.342;2023-03-07T11:49:23;99003.66;;;7.93;100.00
47985;BME280;33753;52.912;-7.342;2023-03-07T11:51:56;98999.91;;;8.31;100.00
47985;BME280;33753;52.912;-7.342;2023-03-07T11:54:28;98992.41;;;7.68;100.00
47985;BME280;33753;52.912;-7.342;2023-03-07T11:57:04;98994.28;;;7.68;100.00
47985;BME280;33753;52.912;-7.342;2023-03-07T11:59:43;98988.31;;;7.72;100.00
47985;BME280;33753;52.912;-7.342;2023-03-07T12:02:26;98986.25;;;7.23;100.00
47985;BME280;33753;52.912;-7.342;2023-03-07T12:05:01;98983.91;;;6.22;100.00
47985;BME280;33753;52.912;-7.342;2023-03-07T12:07:40;98982.78;;;5.85;100.00
47985;BME280;33753;52.912;-7.342;2023-03-07T12:10:13;98979.16;;;6.24;100.00
47985;BME280;33753;52.912;-7.342;2023-03-07T12:12:48;98977.22;;;6.56;100.00
47985;BME280;33753;52.912;-7.342;2023-03-07T12:15:24;98977.38;;;7.07;100.00
47985;BME280;33753;52.912;-7.342;2023-03-07T12:17:57;98975.44;;;7.53;100.00
47985;BME280;33753;52.912;-7.342;2023-03-07T12:20:32;98972.44;;;7.77;100.00
47985;BME280;33753;52.912;-7.342;2023-03-07T12:23:06;98971.41;;;8.00;100.00
47985;BME280;33753;52.912;-7.342;2023-03-07T12:25:38;98968.47;;;7.95;100.00
47985;BME280;33753;52.912;-7.342;2023-03-07T12:28:10;98970.47;;;8.29;100.00
47985;BME280;33753;52.912;-7.342;2023-03-07T12:30:44;98972.56;;;8.12;100.00
47985;BME280;33753;52.912;-7.342;2023-03-07T12:33:19;98975.63;;;8.46;100.00
47985;BME280;33753;52.912;-7.342;2023-03-07T12:35:52;98977.38;;;8.17;100.00
47985;BME280;33753;52.912;-7.342;2023-03-07T12:38:25;98964.88;;;8.09;100.00
47985;BME280;33753;52.912;-7.342;2023-03-07T12:40:57;98971.53;;;7.70;100.00
47985;BME280;33753;52.912;-7.342;2023-03-07T12:43:28;98977.28;;;7.67;100.00
47985;BME280;33753;52.912;-7.342;2023-03-07T12:46:02;98973.88;;;7.95;100.00
47985;BME280;33753;52.912;-7.342;2023-03-07T12:48:39;98950.00;;;8.13;100.00
47985;BME280;33753;52.912;-7.342;2023-03-07T12:51:09;98962.69;;;8.20;100.00
47985;BME280;33753;52.912;-7.342;2023-03-07T12:53:43;98957.69;;;8.38;100.00
47985;BME280;33753;52.912;-7.342;2023-03-07T12:56:14;98946.28;;;7.93;100.00
47985;BME280;33753;52.912;-7.342;2023-03-07T12:58:46;98953.59;;;7.99;100.00
47985;BME280;33753;52.912;-7.342;2023-03-07T13:01:16;98945.91;;;7.96;100.00
47985;BME280;33753;52.912;-7.342;2023-03-07T13:03:50;98942.34;;;7.89;100.00
47985;BME280;33753;52.912;-7.342;2023-03-07T13:06:20;98940.34;;;7.98;100.00
47985;BME280;33753;52.912;-7.342;2023-03-07T13:08:50;98931.09;;;8.07;100.00